Brownsville, Texas
Current Conditions -  °F | °C
As of 11:53 PM on Tuesday 21 Oct 2014 (Local Time) from KBRO Reporting Station
Few Clouds Few Clouds  
Wind Chill: 77°   Ceiling: Unl
Heat Index: 79°   Visibility: 10mi
Dew Point: 71°   Wind: 8mph
Humidity: 82%   Direction: 60°ENE
Pressure: 29.95"   Gusts: NA
Location:  25.9°N, 97.49°W
Report Text: KBRO 220453Z 06007KT 10SM FEW028 25/22 A2995 RMK AO2 SLP140 T02500217
Loading
Personal Weather Stations






























Interactive Weather Map New forecast layout! Learn more

10-Day Weather Forecast

Advertisements
Track Severe Weather on mobile